Latest Weather Observations for Stenhouse Bay

IDS60801

Issued at 11:31 am CST Tuesday 1 September 2015 (issued every 30 minutes, with the page automatically refreshed every 10 minutes)

About weather observations | Map of weather stations | Latest weather observations for SA | Other Formats
Station Details ID: 022049 Name: STENHOUSE BAY Lat: -35.28 Lon: 136.94 Height: 42.0 m
Data from the previous 72 hours. | See also: Recent months at Stenhouse Bay
Date/Time
CST
Temp
°C
App
Temp
°C
Dew
Point
Rel
Hum
%
Delta-T
°C
Wind Press
QNH
hPa
Press
MSL
hPa
Rain
since 9 am
mm
Dir
 
Spd
km/h
Gust
km/h
Spd
kts
Gust
kts
01/11:30am 14.7 11.8 10.9 78 2.0 N 17 22 9 12 1009.6 1009.5 0.4
01/11:00am 14.2 12.2 11.5 84 1.4 NNE 13 19 7 10 1010.0 1009.9 0.4
01/10:30am 13.9 11.9 11.4 85 1.3 NNE 13 17 7 9 1010.2 1010.1 0.4
01/10:00am 13.4 12.3 12.0 91 0.8 NNE 9 15 5 8 1010.6 1010.5 0.4
01/09:30am 12.9 10.5 11.5 91 0.7 NNE 15 22 8 12 1011.0 1010.9 0.2
01/09:00am 13.6 12.6 12.3 92 0.7 NNE 9 15 5 8 1011.3 1011.3 1.4
01/08:30am 13.1 11.5 11.7 91 0.7 NE 11 13 6 7 1011.2 1011.2 1.4
01/08:00am 12.0 11.1 11.5 97 0.3 NNE 7 11 4 6 1011.0 1011.0 1.4
01/07:30am 11.5 9.8 11.2 98 0.2 N 11 13 6 7 1011.1 1011.1 1.4
01/07:00am 11.1 9.3 10.9 99 0.1 N 11 13 6 7 1011.2 1011.2 1.4
01/06:30am 11.1 8.9 10.8 98 0.2 N 13 17 7 9 1011.1 1011.1 1.4
01/06:00am 11.5 9.4 11.0 97 0.3 N 13 17 7 9 1010.9 1010.9 1.4
01/05:30am 11.6 10.0 11.4 99 0.1 N 11 15 6 8 1010.9 1010.9 1.4
01/05:00am 12.2 9.2 12.0 99 0.1 N 19 24 10 13 1011.0 1011.0 1.4
01/04:30am 12.1 9.5 11.9 99 0.1 NNW 17 20 9 11 1011.0 1011.0 1.2
01/04:00am 12.1 10.5 11.6 97 0.3 N 11 15 6 8 1010.9 1010.9 1.2
01/03:30am 12.4 10.0 11.3 93 0.6 NNW 15 22 8 12 1011.4 1011.4 0.2
01/03:00am 12.0 8.7 9.6 85 1.2 N 17 20 9 11 1011.9 1011.9 0.0
01/02:30am 12.0 9.3 9.0 82 1.5 N 13 17 7 9 1012.1 1012.1 0.0
01/02:00am 11.8 9.4 8.5 80 1.6 N 11 17 6 9 1012.5 1012.5 0.0
01/01:30am 11.6 9.0 7.7 77 1.9 N 11 13 6 7 1013.0 1013.0 0.0
01/01:00am 12.1 9.5 7.8 75 2.1 NNE 11 15 6 8 1013.4 1013.4 0.0
01/12:30am 12.8 10.6 9.4 80 1.7 NE 11 17 6 9 1013.6 1013.6 0.0
01/12:00am 13.1 10.2 9.5 79 1.8 NE 15 20 8 11 1013.7 1013.7 0.0
 
Date/Time
CST
Temp
°C
App
Temp
°C
Dew
Point
Rel
Hum
%
Delta-T
°C
Wind Press
QNH
hPa
Press
MSL
hPa
Rain
since 9 am
mm
Dir
 
Spd
km/h
Gust
km/h
Spd
kts
Gust
kts
31/11:30pm 13.2 10.3 9.8 80 1.7 ENE 15 20 8 11 1014.1 1014.1 0.0
31/11:00pm 12.8 9.9 9.6 81 1.6 ENE 15 19 8 10 1014.5 1014.5 0.0
31/10:30pm 12.9 9.9 9.4 79 1.8 ENE 15 20 8 11 1014.9 1014.9 0.0
31/10:00pm 12.6 10.0 9.2 80 1.7 NE 13 17 7 9 1015.3 1015.3 0.0
31/09:30pm 12.9 10.0 9.5 80 1.7 NE 15 19 8 10 1015.5 1015.5 0.0
31/09:00pm 12.9 10.2 10.3 84 1.3 ENE 15 20 8 11 1015.5 1015.5 0.0
31/08:30pm 13.1 10.7 11.5 90 0.8 ENE 15 20 8 11 1015.5 1015.5 0.0
31/08:00pm 13.3 11.0 11.9 91 0.8 ENE 15 20 8 11 1015.5 1015.5 0.0
31/07:30pm 13.5 11.3 12.1 91 0.8 ENE 15 19 8 10 1015.5 1015.5 0.0
31/07:00pm 13.4 11.6 12.0 91 0.8 E 13 19 7 10 1015.5 1015.5 0.0
31/06:30pm 13.6 11.8 12.2 91 0.8 ENE 13 19 7 10 1015.5 1015.5 0.0
31/06:00pm 13.8 12.0 12.0 89 1.0 E 13 20 7 11 1015.4 1015.4 0.0
31/05:30pm 14.4 12.9 11.9 85 1.3 E 11 17 6 9 1015.6 1015.6 0.0
31/05:00pm 17.1 14.9 7.7 54 4.7 NNE 9 13 5 7 1015.6 1015.6 0.0
31/04:30pm 17.3 14.5 7.1 51 5.1 N 11 17 6 9 1015.8 1015.8 0.0
31/04:00pm 19.4 15.8 6.8 44 6.3 N 15 20 8 11 1016.1 1016.1 0.0
31/03:30pm 19.7 15.4 7.1 44 6.4 N 19 24 10 13 1016.0 1016.0 0.0
31/03:00pm 19.8 16.5 7.9 46 6.1 N 15 28 8 15 1016.0 1016.0 0.0
31/02:30pm 16.8 15.9 12.7 77 2.3 E 9 13 5 7 1016.3 1016.3 0.0
31/02:00pm 16.4 15.2 12.8 79 2.0 E 11 19 6 10 1016.6 1016.6 0.0
31/01:30pm 16.6 14.5 12.4 76 2.3 E 15 20 8 11 1017.2 1017.2 0.0
31/01:00pm 16.3 14.6 12.3 77 2.2 ESE 13 17 7 9 1017.8 1017.8 0.0
31/12:30pm 16.8 15.1 12.3 75 2.5 ESE 13 19 7 10 1018.3 1018.3 0.0
31/12:00pm 18.7 17.2 10.5 59 4.4 NE 9 17 5 9 1018.9 1018.9 0.0
31/11:30am 16.8 15.9 11.5 71 2.9 ENE 7 13 4 7 1019.3 1019.3 0.0
31/11:00am 16.2 15.3 11.2 72 2.7 E 7 13 4 7 1019.4 1019.4 0.0
31/10:30am 15.3 14.1 9.4 68 3.0 E 6 9 3 5 1019.7 1019.7 0.0
31/10:00am 14.4 13.3 10.8 79 1.9 ENE 7 9 4 5 1019.8 1019.8 0.0
31/09:30am 12.9 10.8 8.4 74 2.2 ENE 9 9 5 5 1020.0 1020.0 0.0
31/09:00am 12.5 10.3 7.8 73 2.3 NE 9 11 5 6 1020.1 1020.1 0.0
31/08:30am 12.0 10.1 9.0 82 1.5 NE 9 13 5 7 1020.0 1020.0 0.0
31/08:00am 11.1 8.4 8.8 86 1.1 NE 13 17 7 9 1020.0 1020.0 0.0
31/07:30am 10.6 7.8 8.7 88 0.9 NE 13 19 7 10 1020.0 1020.0 0.0
31/07:00am 10.2 7.1 9.0 92 0.6 NE 15 20 8 11 1019.8 1019.8 0.0
31/06:30am 10.0 6.5 8.8 92 0.6 NE 17 22 9 12 1019.6 1019.6 0.0
31/06:00am 9.8 6.2 8.2 90 0.8 NE 17 20 9 11 1019.7 1019.7 0.0
31/05:30am 9.9 5.9 8.2 89 0.8 ENE 19 22 10 12 1019.8 1019.8 0.0
31/05:00am 10.1 6.7 9.3 95 0.4 NE 17 22 9 12 1019.9 1019.9 0.0
31/04:30am 10.5 8.5 10.0 97 0.3 ENE 11 19 6 10 1020.0 1020.0 0.0
31/04:00am 10.4 8.3 9.8 96 0.3 ENE 11 15 6 8 1020.2 1020.2 0.0
31/03:30am 10.2 7.6 9.4 95 0.4 NE 13 15 7 8 1020.4 1020.4 0.0
31/03:00am 10.0 7.8 9.4 96 0.3 NE 11 17 6 9 1020.6 1020.6 0.0
31/02:30am 10.5 7.8 10.2 98 0.2 NE 15 19 8 10 1020.8 1020.8 0.0
31/02:00am 9.2 7.6 8.7 97 0.2 NE 7 13 4 7 1021.2 1021.2 0.0
31/01:30am 8.6 6.8 7.8 95 0.4 NNE 7 9 4 5 1021.5 1021.5 0.0
31/01:00am 8.7 6.2 8.1 96 0.3 NE 11 13 6 7 1021.8 1021.8 0.0
31/12:30am 8.8 6.3 8.0 95 0.4 NE 11 15 6 8 1021.7 1021.7 0.0
31/12:00am 8.9 6.8 8.1 95 0.4 NE 9 13 5 7 1021.9 1021.9 0.0
 
Date/Time
CST
Temp
°C
App
Temp
°C
Dew
Point
Rel
Hum
%
Delta-T
°C
Wind Press
QNH
hPa
Press
MSL
hPa
Rain
since 9 am
mm
Dir
 
Spd
km/h
Gust
km/h
Spd
kts
Gust
kts
30/11:30pm 8.5 6.2 7.4 93 0.5 NNE 9 11 5 6 1022.1 1022.1 0.0
30/11:00pm 10.0 7.5 8.4 90 0.8 NE 11 19 6 10 1022.3 1022.3 0.0
30/10:30pm 11.0 8.3 9.1 88 0.9 ENE 13 17 7 9 1022.4 1022.4 0.0
30/10:00pm 11.0 8.3 8.9 87 1.0 ENE 13 19 7 10 1022.2 1022.2 0.0
30/09:30pm 11.2 7.7 8.9 86 1.1 ENE 17 22 9 12 1022.2 1022.2 0.0
30/09:00pm 11.5 7.9 8.5 82 1.5 ENE 17 24 9 13 1022.4 1022.4 0.0
30/08:30pm 11.9 7.9 8.4 79 1.7 E 19 26 10 14 1022.4 1022.4 0.0
30/08:00pm 11.7 7.7 8.4 80 1.6 E 19 24 10 13 1022.4 1022.4 0.0
30/07:30pm 11.7 8.1 8.4 80 1.6 ENE 17 24 9 13 1022.3 1022.3 0.0
30/07:00pm 11.6 7.9 8.1 79 1.7 E 17 22 9 12 1022.3 1022.3 0.0
30/06:30pm 11.6 8.0 8.5 81 1.5 E 17 24 9 13 1022.4 1022.4 0.0
30/06:00pm 11.7 7.5 8.4 80 1.6 E 20 24 11 13 1022.2 1022.2 0.0
30/05:30pm 12.3 8.8 8.6 78 1.8 ESE 17 20 9 11 1022.5 1022.5 0.0
30/05:00pm 12.9 9.7 8.6 75 2.2 ESE 15 17 8 9 1022.4 1022.4 0.0
30/04:30pm 13.4 10.7 8.9 74 2.3 ESE 13 17 7 9 1022.5 1022.5 0.0
30/04:00pm 14.2 11.6 9.2 72 2.6 ESE 13 17 7 9 1022.5 1022.5 0.0
30/03:30pm 14.4 11.0 9.0 70 2.7 ESE 17 20 9 11 1022.6 1022.6 0.0
30/03:00pm 14.3 11.2 8.9 70 2.7 ESE 15 19 8 10 1022.8 1022.8 0.0
30/02:30pm 14.8 11.4 9.0 68 2.9 ESE 17 20 9 11 1022.8 1022.8 0.0
30/02:00pm 14.8 12.0 8.5 66 3.2 E 13 19 7 10 1023.1 1023.1 0.0
30/01:30pm 14.5 11.3 8.5 67 3.0 E 15 20 8 11 1023.4 1023.4 0.0
30/01:00pm 14.8 11.2 8.5 66 3.2 E 17 24 9 13 1023.8 1023.8 0.0
30/12:30pm 14.5 10.6 8.5 67 3.0 E 19 24 10 13 1024.0 1024.0 0.0
30/12:00pm 14.6 10.7 8.8 68 2.9 E 19 24 10 13 1024.5 1024.5 0.0
30/11:30am 14.1 10.1 8.3 68 2.9 E 19 24 10 13 1024.8 1024.8 0.0
30/11:00am 14.1 10.7 7.6 65 3.2 E 15 19 8 10 1025.2 1025.2 0.0
30/10:30am 13.2 9.7 7.2 67 2.9 ENE 15 19 8 10 1025.5 1025.5 0.0
30/10:00am 12.3 7.7 5.7 64 3.1 ENE 19 26 10 14 1025.6 1025.6 0.0
30/09:30am 11.8 6.7 5.9 67 2.7 ENE 22 30 12 16 1025.8 1025.8 0.0
30/09:00am 11.3 6.9 6.6 73 2.2 NE 19 26 10 14 1025.9 1026.0 0.0
30/08:30am 10.7 7.1 6.6 76 1.9 NE 15 20 8 11 1025.8 1025.8 0.0
30/08:00am 8.8 6.2 6.3 84 1.2 NNE 9 13 5 7 1025.7 1025.7 0.0
30/07:30am 6.5 3.6 4.7 88 0.8 NNE 9 13 5 7 1025.6 1025.6 0.0
30/07:00am 5.2 1.9 4.3 94 0.4 NNE 11 13 6 7 1025.7 1025.7 0.0
30/06:30am 5.4 2.5 4.4 93 0.4 NNE 9 11 5 6 1025.6 1025.6 0.0
30/06:00am 6.8 4.5 5.6 92 0.5 NNE 7 11 4 6 1025.5 1025.5 0.0
30/05:30am 7.2 4.5 5.8 91 0.6 NNE 9 13 5 7 1025.5 1025.5 0.0
30/05:00am 9.1 5.5 6.7 85 1.1 NE 15 22 8 12 1025.4 1025.4 0.0
30/04:30am 9.2 5.3 7.3 88 0.9 NE 17 24 9 13 1025.1 1025.1 0.0
30/04:00am 7.9 4.9 5.9 87 0.9 NE 11 17 6 9 1025.2 1025.2 0.0
30/03:30am 9.4 5.1 6.8 84 1.2 NE 19 24 10 13 1025.2 1025.2 0.0
30/03:00am 7.2 4.0 5.3 88 0.8 NNE 11 15 6 8 1025.5 1025.5 0.0
30/02:30am 8.5 5.0 5.6 82 1.3 NE 13 17 7 9 1026.0 1026.1 0.0
30/02:00am 10.8 6.1 6.0 72 2.2 ENE 20 28 11 15 1026.4 1026.5 0.0
30/01:30am 10.7 5.9 5.5 70 2.4 E 20 28 11 15 1026.7 1026.8 0.0
30/01:00am 10.5 5.7 5.5 71 2.3 E 20 30 11 16 1026.8 1026.9 0.0
30/12:30am 10.4 5.8 5.4 71 2.3 E 19 26 10 14 1027.0 1027.1 0.0
30/12:00am 10.1 6.4 6.1 76 1.8 E 15 22 8 12 1027.2 1027.3 0.0
 
Date/Time
CST
Temp
°C
App
Temp
°C
Dew
Point
Rel
Hum
%
Delta-T
°C
Wind Press
QNH
hPa
Press
MSL
hPa
Rain
since 9 am
mm
Dir
 
Spd
km/h
Gust
km/h
Spd
kts
Gust
kts
29/11:30pm 9.6 6.4 5.0 73 2.1 ENE 11 17 6 9 1027.5 1027.6 0.0
29/11:00pm 9.5 5.4 4.3 70 2.3 E 15 22 8 12 1027.6 1027.7 0.0
29/10:30pm 9.1 4.2 4.1 71 2.2 ESE 19 24 10 13 1027.9 1028.0 0.0
29/10:00pm 9.0 4.1 4.0 71 2.2 ESE 19 24 10 13 1028.0 1028.1 0.0
29/09:30pm 9.0 4.0 3.6 69 2.3 ESE 19 24 10 13 1028.1 1028.2 0.0
29/09:00pm 9.1 4.2 3.9 70 2.3 ESE 19 24 10 13 1028.3 1028.4 0.0
29/08:30pm 9.2 4.1 4.0 70 2.3 ESE 20 28 11 15 1028.2 1028.3 0.0
29/08:00pm 9.3 3.7 3.7 68 2.4 ESE 22 28 12 15 1028.0 1028.1 0.0
29/07:30pm 9.5 4.0 4.1 69 2.4 ESE 22 30 12 16 1027.7 1027.8 0.0
29/07:00pm 9.7 4.3 4.3 69 2.4 ESE 22 28 12 15 1027.4 1027.5 0.0
29/06:30pm 9.9 4.2 4.9 71 2.2 ESE 24 30 13 16 1027.4 1027.5 0.0
29/06:00pm 9.9 4.2 5.1 72 2.2 ESE 24 32 13 17 1027.3 1027.4 0.0
29/05:30pm 10.5 4.5 5.5 71 2.3 E 26 33 14 18 1027.0 1027.1 0.0
29/05:00pm 11.3 5.3 5.4 67 2.7 ESE 26 33 14 18 1027.0 1027.1 0.0
29/04:30pm 11.5 5.5 5.2 65 2.9 E 26 35 14 19 1026.7 1026.8 0.0
29/04:00pm 12.4 6.5 6.0 65 3.0 ESE 26 33 14 18 1026.9 1027.0 0.0
29/03:30pm 12.9 7.4 6.0 63 3.2 E 24 30 13 16 1027.0 1027.1 0.0
29/03:00pm 12.9 7.2 6.5 65 3.0 E 26 32 14 17 1027.0 1027.1 0.0
29/02:30pm 13.2 7.3 7.4 68 2.8 E 28 37 15 20 1027.0 1027.1 0.0
29/02:00pm 13.9 9.0 8.3 69 2.8 E 24 32 13 17 1027.1 1027.2 0.0
29/01:30pm 13.2 7.8 7.9 70 2.6 E 26 33 14 18 1027.4 1027.5 0.0
29/01:00pm 12.9 8.0 8.4 74 2.2 ESE 24 32 13 17 1027.8 1027.9 0.0
29/12:30pm 13.4 8.3 7.8 69 2.7 ESE 24 30 13 16 1028.3 1028.4 0.0
29/12:00pm 13.5 7.6 7.5 67 2.9 E 28 35 15 19 1028.6 1028.7 0.0

Other Formats:

Comma delimited format used in spreadsheet applications
http://www.bom.gov.au/fwo/IDS60801/IDS60801.95806.axf

JavaScript Object Notation format (JSON) in row-major order
http://www.bom.gov.au/fwo/IDS60801/IDS60801.95806.json